createdAt,value
2023-02-14T00:01:23.952Z,10.05
2023-02-14T00:03:51.702Z,10.07
2023-02-14T00:06:19.555Z,10.18
2023-02-14T00:08:47.127Z,9.40
2023-02-14T00:11:14.729Z,9.40
2023-02-14T00:14:02.304Z,9.70
2023-02-14T00:16:29.982Z,9.55
2023-02-14T00:19:03.861Z,10.38
2023-02-14T00:21:37.080Z,9.53
2023-02-14T00:24:10.852Z,10.38
2023-02-14T00:26:38.932Z,10.02
2023-02-14T00:29:07.725Z,9.43
2023-02-14T00:31:35.931Z,10.55
2023-02-14T00:34:04.368Z,9.83
2023-02-14T00:36:32.040Z,9.60
2023-02-14T00:38:59.692Z,9.98
2023-02-14T00:41:27.267Z,9.82
2023-02-14T00:43:54.795Z,8.90
2023-02-14T00:46:23.392Z,9.23
2023-02-14T00:48:51.719Z,9.50
2023-02-14T00:51:20.460Z,9.55
2023-02-14T00:53:49.578Z,9.68
2023-02-14T00:56:18.156Z,9.18
2023-02-14T00:58:45.969Z,10.00
2023-02-14T01:01:16.170Z,9.43
2023-02-14T01:03:43.795Z,9.38
2023-02-14T01:06:11.763Z,8.32
2023-02-14T01:08:39.440Z,9.52
2023-02-14T01:11:14.475Z,9.17
2023-02-14T01:13:43.057Z,8.88
2023-02-14T01:16:14.158Z,9.77
2023-02-14T01:18:42.356Z,9.30
2023-02-14T01:21:19.316Z,8.90
2023-02-14T01:23:49.104Z,9.87
2023-02-14T01:26:18.633Z,9.43
2023-02-14T01:28:46.914Z,10.30
2023-02-14T01:31:22.325Z,10.05
2023-02-14T01:33:52.059Z,9.55
2023-02-14T01:36:22.466Z,9.10
2023-02-14T01:38:55.761Z,9.85
2023-02-14T01:41:25.055Z,10.40
2023-02-14T01:44:07.816Z,8.98
2023-02-14T01:46:37.699Z,9.52
2023-02-14T01:49:23.849Z,9.50
2023-02-14T01:51:59.710Z,10.18
2023-02-14T01:54:29.540Z,10.15
2023-02-14T01:57:02.849Z,9.88
2023-02-14T01:59:36.588Z,10.63
2023-02-14T02:02:05.676Z,9.43
2023-02-14T02:04:38.010Z,9.77
2023-02-14T02:07:09.181Z,9.80
2023-02-14T02:09:47.757Z,10.20
2023-02-14T02:12:16.328Z,10.27
2023-02-14T02:14:44.792Z,10.53
2023-02-14T02:17:33.983Z,9.75
2023-02-14T02:20:10.627Z,10.73
2023-02-14T02:23:03.229Z,11.00
2023-02-14T02:26:15.562Z,10.32
2023-02-14T02:29:28.378Z,9.80
2023-02-14T02:32:34.739Z,9.82
2023-02-14T02:38:37.592Z,10.02
2023-02-14T02:41:31.084Z,10.13
2023-02-14T02:44:18.739Z,10.53
2023-02-14T02:47:12.684Z,10.25
2023-02-14T02:50:24.494Z,10.18
2023-02-14T02:53:21.406Z,10.68
2023-02-14T02:56:13.772Z,10.18
2023-02-14T02:58:44.479Z,10.33
2023-02-14T03:01:16.087Z,10.93
2023-02-14T03:04:06.661Z,10.80
2023-02-14T03:06:35.164Z,10.85
2023-02-14T03:09:29.734Z,10.75
2023-02-14T03:12:26.709Z,11.23
2023-02-14T03:15:21.262Z,10.95
2023-02-14T03:18:08.335Z,11.00
2023-02-14T03:20:44.688Z,10.95
2023-02-14T03:23:25.001Z,12.18
2023-02-14T03:26:01.422Z,11.60
2023-02-14T03:28:50.778Z,10.90
2023-02-14T03:31:28.530Z,11.07
2023-02-14T03:34:14.943Z,11.48
2023-02-14T03:36:52.613Z,11.70
2023-02-14T03:39:28.048Z,10.93
2023-02-14T03:42:19.079Z,11.30
2023-02-14T03:44:50.064Z,11.13
2023-02-14T03:47:22.880Z,11.18
2023-02-14T03:49:57.396Z,11.30
2023-02-14T03:52:27.745Z,11.17
2023-02-14T03:54:58.120Z,11.80
2023-02-14T03:57:48.991Z,12.43
2023-02-14T04:00:18.545Z,11.45
2023-02-14T04:02:51.659Z,12.18
2023-02-14T04:05:24.417Z,11.40
2023-02-14T04:07:55.969Z,11.93
2023-02-14T04:10:24.047Z,11.57
2023-02-14T04:12:53.599Z,11.77
2023-02-14T04:15:21.699Z,11.65
2023-02-14T04:18:07.835Z,11.77
2023-02-14T04:20:37.201Z,11.25
2023-02-14T04:23:04.963Z,11.50
2023-02-14T04:25:32.592Z,12.07
2023-02-14T04:28:00.131Z,12.27
2023-02-14T04:30:27.906Z,11.60
2023-02-14T04:32:55.629Z,11.95
2023-02-14T04:35:23.241Z,11.85
2023-02-14T04:37:50.803Z,11.70
2023-02-14T04:40:18.488Z,12.40
2023-02-14T04:42:46.870Z,12.27
2023-02-14T04:45:15.102Z,11.70
2023-02-14T04:47:42.717Z,11.80
2023-02-14T04:50:10.422Z,11.38
2023-02-14T04:52:38.382Z,12.00
2023-02-14T04:55:06.811Z,11.50
2023-02-14T04:57:34.430Z,11.25
2023-02-14T05:00:02.282Z,11.88
2023-02-14T05:02:31.021Z,11.38
2023-02-14T05:04:58.669Z,12.18
2023-02-14T05:07:26.493Z,11.57
2023-02-14T05:09:54.062Z,12.25
2023-02-14T05:12:21.574Z,12.10
2023-02-14T05:14:49.122Z,11.43
2023-02-14T05:17:17.054Z,11.90
2023-02-14T05:19:45.603Z,12.10
2023-02-14T05:22:13.292Z,11.63
2023-02-14T05:24:40.884Z,11.80
2023-02-14T05:27:08.478Z,11.13
2023-02-14T05:29:36.002Z,11.70
2023-02-14T05:32:03.720Z,11.97
2023-02-14T05:34:31.273Z,11.40
2023-02-14T05:36:58.949Z,11.80
2023-02-14T05:39:26.612Z,12.05
2023-02-14T05:41:54.167Z,12.65
2023-02-14T05:44:22.110Z,12.23
2023-02-14T05:46:49.829Z,12.70
2023-02-14T05:49:17.438Z,12.75
2023-02-14T05:51:45.050Z,12.98
2023-02-14T05:54:12.723Z,12.77
2023-02-14T05:56:40.252Z,12.67
2023-02-14T05:59:07.801Z,12.45
2023-02-14T06:01:35.361Z,13.20
2023-02-14T06:04:03.153Z,13.05
2023-02-14T06:06:30.832Z,12.55
2023-02-14T06:08:58.505Z,13.20
2023-02-14T06:11:26.057Z,13.27
2023-02-14T06:13:53.591Z,13.55
2023-02-14T06:16:21.346Z,13.60
2023-02-14T06:18:48.961Z,14.15
2023-02-14T06:21:16.515Z,13.10
2023-02-14T06:23:44.390Z,13.27
2023-02-14T06:30:37.724Z,12.80
2023-02-14T06:33:05.444Z,14.38
2023-02-14T06:35:33.067Z,13.47
2023-02-14T06:38:00.733Z,13.48
2023-02-14T06:40:28.274Z,13.02
2023-02-14T06:42:55.859Z,13.32
2023-02-14T06:45:23.419Z,13.60
2023-02-14T06:47:51.070Z,14.30
2023-02-14T06:50:18.629Z,14.63
2023-02-14T06:52:46.259Z,14.75
2023-02-14T06:55:13.985Z,14.45
2023-02-14T06:57:41.620Z,13.80
2023-02-14T07:00:10.317Z,13.73
2023-02-14T07:02:38.116Z,14.48
2023-02-14T07:05:05.938Z,14.15
2023-02-14T07:07:33.619Z,13.10
2023-02-14T07:10:01.206Z,14.40
2023-02-14T07:12:28.816Z,13.03
2023-02-14T07:14:56.702Z,14.10
2023-02-14T07:17:24.308Z,15.50
2023-02-14T07:19:51.882Z,15.20
2023-02-14T07:22:19.545Z,15.02
2023-02-14T07:24:47.161Z,15.73
2023-02-14T07:27:14.729Z,14.82
2023-02-14T07:29:42.628Z,14.98
2023-02-14T07:32:10.343Z,15.15
2023-02-14T07:34:37.971Z,15.80
2023-02-14T07:37:05.663Z,15.10
2023-02-14T07:39:33.293Z,15.13
2023-02-14T07:42:00.915Z,15.23
2023-02-14T07:44:28.610Z,14.73
2023-02-14T07:46:56.323Z,15.85
2023-02-14T07:49:23.863Z,15.63
2023-02-14T07:51:51.598Z,15.38
2023-02-14T07:54:20.303Z,16.58
2023-02-14T07:56:48.120Z,16.02
2023-02-14T07:59:16.347Z,14.88
2023-02-14T08:01:44.141Z,16.00
2023-02-14T08:04:14.002Z,15.68
2023-02-14T08:06:42.542Z,16.73
2023-02-14T08:09:10.789Z,16.23
2023-02-14T08:11:56.948Z,16.40
2023-02-14T08:14:24.641Z,15.10
2023-02-14T08:16:52.232Z,15.85
2023-02-14T08:19:19.930Z,16.92
2023-02-14T08:21:47.425Z,16.55
2023-02-14T08:24:14.995Z,16.00
2023-02-14T08:26:42.621Z,16.30
2023-02-14T08:29:10.226Z,16.40
2023-02-14T08:31:38.038Z,16.00
2023-02-14T08:34:06.331Z,16.13
2023-02-14T08:36:34.468Z,16.30
2023-02-14T08:39:05.009Z,16.30
2023-02-14T08:41:32.683Z,15.45
2023-02-14T08:44:02.205Z,15.95
2023-02-14T08:46:30.080Z,16.77
2023-02-14T08:48:57.766Z,14.93
2023-02-14T08:51:26.109Z,15.80
2023-02-14T08:53:55.108Z,15.68
2023-02-14T08:56:22.878Z,16.38
2023-02-14T08:58:54.925Z,16.63
2023-02-14T09:01:22.979Z,15.27
2023-02-14T09:03:50.796Z,14.80
2023-02-14T09:06:18.665Z,15.68
2023-02-14T09:08:46.740Z,15.30
2023-02-14T09:11:18.750Z,15.98
2023-02-14T09:13:47.222Z,16.10
2023-02-14T09:16:19.323Z,15.33
2023-02-14T09:18:48.629Z,15.20
2023-02-14T09:21:19.686Z,14.25
2023-02-14T09:23:47.594Z,15.95
2023-02-14T09:26:16.378Z,15.85
2023-02-14T09:28:45.273Z,16.47
2023-02-14T09:31:21.448Z,15.15
2023-02-14T09:33:50.550Z,15.60
2023-02-14T09:36:36.963Z,13.98
2023-02-14T09:39:04.947Z,15.70
2023-02-14T09:41:38.336Z,14.90
2023-02-14T09:44:12.758Z,15.48
2023-02-14T09:46:50.886Z,15.13
2023-02-14T09:49:30.405Z,15.82
2023-02-14T09:52:01.402Z,15.48
2023-02-14T09:54:31.256Z,13.93
2023-02-14T09:57:27.512Z,15.32
2023-02-14T09:59:58.594Z,15.05
2023-02-14T10:02:41.873Z,15.85
2023-02-14T10:05:18.449Z,15.07
2023-02-14T10:08:23.428Z,14.70
2023-02-14T10:11:05.945Z,13.82
2023-02-14T10:13:39.297Z,14.80
2023-02-14T10:16:29.575Z,15.02
2023-02-14T10:19:06.420Z,14.85
2023-02-14T10:21:41.178Z,14.77
2023-02-14T10:24:37.844Z,14.23
2023-02-14T10:27:22.107Z,14.10
2023-02-14T10:29:49.931Z,15.00
2023-02-14T10:32:27.373Z,15.10
2023-02-14T10:35:00.235Z,14.70
2023-02-14T10:37:39.900Z,14.70
2023-02-14T10:40:33.983Z,15.30
2023-02-14T10:43:09.779Z,15.70
2023-02-14T10:45:46.505Z,14.05
2023-02-14T10:48:22.640Z,14.27
2023-02-14T10:51:03.825Z,15.10
2023-02-14T10:53:46.391Z,15.02
2023-02-14T10:56:40.429Z,14.93
2023-02-14T10:59:31.401Z,14.98
2023-02-14T11:02:00.822Z,14.80
2023-02-14T11:04:31.871Z,15.23
2023-02-14T11:06:59.512Z,14.55
2023-02-14T11:09:27.088Z,15.02
2023-02-14T11:12:00.081Z,15.38
2023-02-14T11:14:32.599Z,14.20
2023-02-14T11:17:01.334Z,13.38
2023-02-14T11:19:31.394Z,13.98
2023-02-14T11:22:00.905Z,13.60
2023-02-14T11:24:39.869Z,14.48
2023-02-14T11:27:10.446Z,13.93
2023-02-14T11:29:41.141Z,15.35
2023-02-14T11:32:20.542Z,16.30
2023-02-14T11:34:54.440Z,15.63
2023-02-14T11:37:21.906Z,14.70
2023-02-14T11:39:51.331Z,14.47
2023-02-14T11:42:42.905Z,14.45
2023-02-14T11:45:37.292Z,15.00
2023-02-14T11:48:36.730Z,15.23
2023-02-14T11:51:13.946Z,14.93
2023-02-14T11:53:46.119Z,15.10
2023-02-14T11:56:18.181Z,14.55
2023-02-14T11:58:52.376Z,14.75
2023-02-14T12:01:25.541Z,13.98
2023-02-14T12:03:55.754Z,15.60
2023-02-14T12:06:25.847Z,13.90
2023-02-14T12:09:31.643Z,13.45
2023-02-14T12:12:01.530Z,14.65
2023-02-14T12:14:35.469Z,14.57
2023-02-14T12:17:14.313Z,15.30
2023-02-14T12:19:54.535Z,15.40
2023-02-14T12:22:28.517Z,15.45
2023-02-14T12:25:22.974Z,15.90
2023-02-14T12:28:09.400Z,15.55
2023-02-14T12:30:37.082Z,15.50
2023-02-14T12:33:17.892Z,15.77
2023-02-14T12:36:08.976Z,14.68
2023-02-14T12:39:36.907Z,15.98
2023-02-14T12:42:16.273Z,15.63
2023-02-14T12:44:49.493Z,15.93
2023-02-14T12:47:26.143Z,16.47
2023-02-14T12:50:27.749Z,15.45
2023-02-14T12:53:13.798Z,16.08
2023-02-14T12:56:11.010Z,15.13
2023-02-14T12:58:44.436Z,16.33
2023-02-14T13:01:41.175Z,14.57
2023-02-14T13:04:35.699Z,14.77
2023-02-14T13:07:44.829Z,14.60
2023-02-14T13:10:31.854Z,14.40
2023-02-14T13:13:16.917Z,13.98
2023-02-14T13:15:56.880Z,14.87
2023-02-14T13:18:52.678Z,13.90
2023-02-14T13:21:24.575Z,14.18
2023-02-14T13:23:59.035Z,14.15
2023-02-14T13:26:34.040Z,15.07
2023-02-14T13:29:10.415Z,14.50
2023-02-14T13:31:41.636Z,14.85
2023-02-14T13:34:43.892Z,14.18
2023-02-14T13:37:13.994Z,14.45
2023-02-14T13:39:45.895Z,15.88
2023-02-14T13:42:48.889Z,14.73
2023-02-14T13:45:45.172Z,14.68
2023-02-14T13:48:14.353Z,13.77
2023-02-14T13:50:53.886Z,14.45
2023-02-14T13:53:44.092Z,13.18
2023-02-14T13:56:17.564Z,12.73
2023-02-14T13:58:55.894Z,13.25
2023-02-14T14:01:48.325Z,13.05
2023-02-14T14:04:28.575Z,13.13
2023-02-14T14:07:30.947Z,12.50
2023-02-14T14:10:02.603Z,12.30
2023-02-14T14:12:33.592Z,11.60
2023-02-14T14:15:07.202Z,11.05
2023-02-14T14:17:47.371Z,12.27
2023-02-14T14:20:20.561Z,8.85
2023-02-14T14:22:48.085Z,11.10
2023-02-14T14:25:37.400Z,11.52
2023-02-14T14:28:13.008Z,11.95
2023-02-14T14:30:44.700Z,11.27
2023-02-14T14:33:27.649Z,11.25
2023-02-14T14:35:59.458Z,11.80
2023-02-14T14:38:28.145Z,11.52
2023-02-14T14:41:07.658Z,12.60
2023-02-14T14:43:38.499Z,12.75
2023-02-14T14:46:11.594Z,11.57
2023-02-14T14:48:45.627Z,8.17
2023-02-14T14:51:35.085Z,11.52
2023-02-14T14:54:18.341Z,11.50
2023-02-14T14:57:01.671Z,9.82
2023-02-14T15:02:22.197Z,10.50
2023-02-14T15:04:49.918Z,10.70
2023-02-14T15:07:36.537Z,10.50
2023-02-14T15:10:04.631Z,10.25
2023-02-14T15:12:50.833Z,11.00
2023-02-14T15:15:19.150Z,12.30
2023-02-14T15:17:47.272Z,11.77
2023-02-14T15:20:20.289Z,11.52
2023-02-14T15:22:51.107Z,11.90
2023-02-14T15:25:18.690Z,11.80
2023-02-14T15:27:47.176Z,10.93
2023-02-14T15:30:23.229Z,9.10
2023-02-14T15:32:52.578Z,10.82
2023-02-14T15:35:29.183Z,9.90
2023-02-14T15:38:01.390Z,10.18
2023-02-14T15:40:32.762Z,10.27
2023-02-14T15:43:15.293Z,9.20
2023-02-14T15:45:45.903Z,8.23
2023-02-14T15:48:20.433Z,8.60
2023-02-14T15:50:53.073Z,8.50
2023-02-14T15:53:20.916Z,8.10
2023-02-14T15:55:50.548Z,8.80
2023-02-14T15:58:21.734Z,7.72
2023-02-14T16:00:51.511Z,6.47
2023-02-14T16:03:33.785Z,7.13
2023-02-14T16:06:01.983Z,7.07
2023-02-14T16:08:41.260Z,6.88
2023-02-14T16:11:15.934Z,6.63
2023-02-14T16:13:46.077Z,6.57
2023-02-14T16:16:15.674Z,6.53
2023-02-14T16:18:52.254Z,6.27
2023-02-14T16:21:28.834Z,6.38
2023-02-14T16:24:11.237Z,7.20
2023-02-14T16:26:41.212Z,6.72
2023-02-14T16:29:11.038Z,7.40
2023-02-14T16:32:14.126Z,7.20
2023-02-14T16:34:37.126Z,6.80
2023-02-14T16:37:18.318Z,6.70
2023-02-14T16:39:46.172Z,7.10
2023-02-14T16:42:18.768Z,6.82
2023-02-14T16:44:47.150Z,7.27
2023-02-14T16:47:16.014Z,7.43
2023-02-14T16:49:43.697Z,7.28
2023-02-14T16:52:18.651Z,7.18
2023-02-14T16:54:46.325Z,7.65
2023-02-14T16:57:22.897Z,7.27
2023-02-14T16:59:51.499Z,7.75
2023-02-14T17:02:19.665Z,7.38
2023-02-14T17:04:47.545Z,8.00
2023-02-14T17:07:16.323Z,7.60
2023-02-14T17:09:52.935Z,7.43
2023-02-14T17:12:25.998Z,7.57
2023-02-14T17:14:57.091Z,7.57
2023-02-14T17:17:26.037Z,7.22
2023-02-14T17:19:53.896Z,7.22
2023-02-14T17:22:21.566Z,7.07
2023-02-14T17:24:49.048Z,8.32
2023-02-14T17:27:16.684Z,7.88
2023-02-14T17:29:44.214Z,7.72
2023-02-14T17:32:13.758Z,7.47
2023-02-14T17:34:41.831Z,8.13
2023-02-14T17:37:09.476Z,8.93
2023-02-14T17:39:37.069Z,8.35
2023-02-14T17:42:04.855Z,7.05
2023-02-14T17:44:35.998Z,6.90
2023-02-14T17:47:05.322Z,6.17
2023-02-14T17:49:33.041Z,6.60
2023-02-14T17:52:03.178Z,7.20
2023-02-14T17:54:30.873Z,6.55
2023-02-14T17:56:58.734Z,6.97
2023-02-14T17:59:27.077Z,6.73
2023-02-14T18:01:54.783Z,8.38
2023-02-14T18:04:22.326Z,10.02
2023-02-14T18:06:49.828Z,10.52
2023-02-14T18:09:19.587Z,10.30
2023-02-14T18:11:47.569Z,11.00
2023-02-14T18:14:26.108Z,9.85
2023-02-14T18:16:54.235Z,9.80
2023-02-14T18:19:22.118Z,9.95
2023-02-14T18:21:52.883Z,10.10
2023-02-14T18:24:21.692Z,9.00
2023-02-14T18:26:49.841Z,10.30
2023-02-14T18:29:18.040Z,9.60
2023-02-14T18:31:45.975Z,9.88
2023-02-14T18:34:13.623Z,9.43
2023-02-14T18:36:42.231Z,9.30
2023-02-14T18:39:10.623Z,8.90
2023-02-14T18:41:38.605Z,10.43
2023-02-14T18:44:07.009Z,9.20
2023-02-14T18:46:36.122Z,9.13
2023-02-14T18:49:07.243Z,9.73
2023-02-14T18:51:37.941Z,9.65
2023-02-14T18:54:05.838Z,9.45
2023-02-14T18:56:36.078Z,9.35
2023-02-14T18:59:39.878Z,10.63
2023-02-14T19:02:27.703Z,10.47
2023-02-14T19:04:58.639Z,10.63
2023-02-14T19:07:27.069Z,10.63
2023-02-14T19:09:54.600Z,9.93
2023-02-14T19:12:22.488Z,9.63
2023-02-14T19:14:50.972Z,9.63
2023-02-14T19:17:19.202Z,10.13
2023-02-14T19:19:46.843Z,10.35
2023-02-14T19:22:14.640Z,9.38
2023-02-14T19:24:42.281Z,9.45
2023-02-14T19:27:09.871Z,9.33
2023-02-14T19:29:38.415Z,8.23
2023-02-14T19:32:06.184Z,8.60
2023-02-14T19:34:38.523Z,8.05
2023-02-14T19:37:06.512Z,7.88
2023-02-14T19:39:34.260Z,7.17
2023-02-14T19:42:02.127Z,7.15
2023-02-14T19:44:31.249Z,7.45
2023-02-14T19:47:09.762Z,6.68
2023-02-14T19:49:43.687Z,5.97
2023-02-14T19:52:25.768Z,6.60
2023-02-14T19:54:56.045Z,6.15
2023-02-14T19:57:24.647Z,7.15
2023-02-14T19:59:52.437Z,6.55
2023-02-14T20:02:21.120Z,7.30
2023-02-14T20:04:49.086Z,7.17
2023-02-14T20:07:17.468Z,7.38
2023-02-14T20:09:45.129Z,7.25
2023-02-14T20:12:12.759Z,7.30
2023-02-14T20:14:50.903Z,7.22
2023-02-14T20:17:19.551Z,7.63
2023-02-14T20:19:47.473Z,8.20
2023-02-14T20:22:17.990Z,7.45
2023-02-14T20:24:45.920Z,8.50
2023-02-14T20:27:13.494Z,9.50
2023-02-14T20:29:45.097Z,8.80
2023-02-14T20:32:15.726Z,8.93
2023-02-14T20:34:44.670Z,10.13
2023-02-14T20:37:12.238Z,10.98
2023-02-14T20:39:50.420Z,12.80
2023-02-14T20:42:25.692Z,11.07
2023-02-14T20:45:01.003Z,10.23
2023-02-14T20:47:37.841Z,9.88
2023-02-14T20:50:08.713Z,9.48
2023-02-14T20:52:41.712Z,8.68
2023-02-14T20:55:19.005Z,8.80
2023-02-14T20:58:03.019Z,9.45
2023-02-14T21:01:15.422Z,7.68
2023-02-14T21:03:59.300Z,7.95
2023-02-14T21:06:33.060Z,7.60
2023-02-14T21:09:07.464Z,7.47
2023-02-14T21:11:36.756Z,6.72
2023-02-14T21:14:21.411Z,6.95
2023-02-14T21:17:29.786Z,7.15
2023-02-14T21:20:48.161Z,6.90
2023-02-14T21:26:39.044Z,7.25
2023-02-14T21:29:31.871Z,7.40
2023-02-14T21:33:13.019Z,7.30
2023-02-14T21:35:30.775Z,8.43
2023-02-14T21:37:58.692Z,7.30
2023-02-14T21:40:26.382Z,8.20
2023-02-14T21:42:54.083Z,8.02
2023-02-14T21:45:40.047Z,8.20
2023-02-14T21:48:26.345Z,8.40
2023-02-14T21:50:53.987Z,8.77
2023-02-14T21:53:21.854Z,7.95
2023-02-14T21:55:49.867Z,8.25
2023-02-14T21:58:18.153Z,7.88
2023-02-14T22:00:48.127Z,7.70
2023-02-14T22:03:15.903Z,6.87
2023-02-14T22:05:43.595Z,8.25
2023-02-14T22:08:11.470Z,8.00
2023-02-14T22:10:40.487Z,7.43
2023-02-14T22:13:08.363Z,9.18
2023-02-14T22:15:37.611Z,8.10
2023-02-14T22:18:07.362Z,8.20
2023-02-14T22:20:35.167Z,7.68
2023-02-14T22:23:02.906Z,7.20
2023-02-14T22:25:30.660Z,8.07
2023-02-14T22:27:58.362Z,8.10
2023-02-14T22:30:26.209Z,8.07
2023-02-14T22:32:55.035Z,8.75
2023-02-14T22:35:22.857Z,8.95
2023-02-14T22:37:50.509Z,9.07
2023-02-14T22:40:18.387Z,9.00
2023-02-14T22:42:46.056Z,7.65
2023-02-14T22:45:13.810Z,7.35
2023-02-14T22:47:41.540Z,6.90
2023-02-14T22:50:09.511Z,6.80
2023-02-14T22:52:37.172Z,7.80
2023-02-14T22:55:05.056Z,6.55
2023-02-14T22:57:32.684Z,5.47
2023-02-14T23:00:00.561Z,5.20
2023-02-14T23:02:28.378Z,5.30
2023-02-14T23:04:57.248Z,4.97
2023-02-14T23:07:25.188Z,5.03
2023-02-14T23:09:53.049Z,4.88
2023-02-14T23:12:39.211Z,5.00
2023-02-14T23:15:27.237Z,4.70
2023-02-14T23:18:14.418Z,4.23
2023-02-14T23:21:00.662Z,4.57
2023-02-14T23:23:32.613Z,4.00
2023-02-14T23:26:01.064Z,4.40
2023-02-14T23:28:29.089Z,3.88
2023-02-14T23:31:01.302Z,4.37
2023-02-14T23:33:29.082Z,4.47
2023-02-14T23:35:56.706Z,4.30
2023-02-14T23:38:24.441Z,4.95
2023-02-14T23:41:10.613Z,4.22
2023-02-14T23:43:38.415Z,5.10
2023-02-14T23:46:06.034Z,5.45
2023-02-14T23:48:33.695Z,5.70
2023-02-14T23:51:01.324Z,6.30
2023-02-14T23:53:29.024Z,5.45
2023-02-14T23:56:01.653Z,5.97
2023-02-14T23:58:29.678Z,5.82
